Time;durP1;ratioP1;P1;durP2;ratioP2;P2;SDS_P1;SDS_P2;PMS_P1;PMS_P2;Temp;Humidity;BMP_temperature;BMP_pressure;BME280_temperature;BME280_humidity;BME280_pressure;Samples;Min_cycle;Max_cycle;Signal;HPM_P1;HPM_P2
2023/07/26 00:00:13;;;;;;;17.80;6.85;;;;;;;27.81;50.64;65944.28;5031075;28;20317;-52
2023/07/26 00:02:39;;;;;;;18.00;6.82;;;;;;;27.64;51.77;65923.34;5030767;28;20257;-53
2023/07/26 00:05:05;;;;;;;14.25;6.95;;;;;;;27.63;52.52;65922.25;5029219;28;20190;-54
2023/07/26 00:07:30;;;;;;;14.63;7.47;;;;;;;27.72;51.89;65934.28;5031066;28;20300;-53
2023/07/26 00:09:56;;;;;;;13.20;6.95;;;;;;;27.80;51.92;65943.72;5030561;28;20407;-53
2023/07/26 00:12:22;;;;;;;16.13;6.53;;;;;;;27.32;53.27;65890.91;5030669;28;20316;-53
2023/07/26 00:14:47;;;;;;;15.25;6.53;;;;;;;27.29;53.55;65887.00;5030491;28;20198;-53
2023/07/26 00:17:12;;;;;;;9.00;6.88;;;;;;;27.46;53.40;65905.91;5030453;28;20217;-54
2023/07/26 00:19:38;;;;;;;14.65;6.18;;;;;;;27.14;54.55;65870.31;5045183;28;20230;-55
2023/07/26 00:22:04;;;;;;;15.02;8.05;;;;;;;27.19;54.59;65875.88;5029228;28;20744;-53
2023/07/26 00:24:30;;;;;;;10.60;5.97;;;;;;;27.00;56.00;65852.19;5030753;28;20210;-53
2023/07/26 00:26:55;;;;;;;8.38;6.35;;;;;;;27.28;55.42;65886.44;5045903;28;20287;-52
2023/07/26 00:29:21;;;;;;;15.77;6.68;;;;;;;27.21;56.35;65876.06;5030294;28;20628;-53
2023/07/26 00:31:46;;;;;;;12.85;6.78;;;;;;;26.96;57.80;65850.31;5030590;28;20206;-53
2023/07/26 00:34:12;;;;;;;12.90;7.15;;;;;;;26.84;58.44;65840.13;5030497;28;20205;-56
2023/07/26 00:36:37;;;;;;;14.65;7.20;;;;;;;26.86;58.67;65839.19;5030527;28;20580;-54
2023/07/26 00:39:03;;;;;;;14.15;6.82;;;;;;;26.97;58.07;65854.56;5030620;28;20198;-52
2023/07/26 00:41:29;;;;;;;13.82;6.70;;;;;;;26.99;58.14;65851.63;5030402;28;20263;-53
2023/07/26 00:43:55;;;;;;;10.48;5.80;;;;;;;27.00;56.84;65855.31;5030305;28;20330;-53
2023/07/26 00:46:21;;;;;;;13.77;6.63;;;;;;;27.23;56.67;65880.34;5030451;28;20260;-53
2023/07/26 00:48:47;;;;;;;14.82;6.80;;;;;;;27.10;56.91;65866.44;5030787;28;20221;-59
2023/07/26 00:51:13;;;;;;;15.45;6.75;;;;;;;27.11;56.78;65867.53;5029821;28;20222;-53
2023/07/26 00:53:39;;;;;;;14.75;6.65;;;;;;;27.29;55.50;65887.00;5030212;28;20186;-53
2023/07/26 00:56:04;;;;;;;11.02;6.05;;;;;;;27.17;56.65;65871.09;5030289;28;20689;-53
2023/07/26 00:58:30;;;;;;;16.95;6.90;;;;;;;27.14;56.52;65870.31;5030259;28;20226;-54
2023/07/26 01:00:57;;;;;;;12.02;6.40;;;;;;;27.07;57.78;65863.09;5028675;28;20692;-53
2023/07/26 01:03:22;;;;;;;17.58;6.20;;;;;;;27.29;57.22;65884.41;5030200;28;20183;-53
2023/07/26 01:06:07;;;;;;;11.75;6.72;;;;;;;27.11;57.40;65864.94;5030441;28;20273;-53
2023/07/26 01:08:42;;;;;;;12.15;6.07;;;;;;;27.24;57.96;65882.00;5030301;28;20213;-53
2023/07/26 01:11:27;;;;;;;18.55;7.28;;;;;;;26.94;58.52;65851.25;5030025;28;20241;-53
2023/07/26 01:14:01;;;;;;;16.98;7.18;;;;;;;27.13;58.36;65867.16;5030126;28;20325;-53
2023/07/26 01:16:27;;;;;;;12.00;6.82;;;;;;;27.04;58.48;65859.78;5030327;28;20210;-53
2023/07/26 01:18:53;;;;;;;12.20;7.07;;;;;;;26.94;59.53;65845.50;5030312;28;20202;-53
2023/07/26 01:21:18;;;;;;;9.75;6.57;;;;;;;26.94;59.31;65848.09;5029733;28;20608;-53
2023/07/26 01:23:43;;;;;;;13.35;6.65;;;;;;;26.95;59.64;65849.75;5028575;28;20703;-53
2023/07/26 01:26:15;;;;;;;11.85;6.22;;;;;;;26.86;60.25;65837.19;5029978;28;20281;-53
2023/07/26 01:28:41;;;;;;;11.27;6.60;;;;;;;26.84;59.89;65836.97;5030195;28;20220;-54
2023/07/26 01:31:08;;;;;;;14.65;6.85;;;;;;;26.74;59.56;65823.84;5031500;28;20226;-53
2023/07/26 01:33:36;;;;;;;16.70;7.32;;;;;;;26.64;60.09;65813.25;5033156;28;20333;-53
2023/07/26 01:36:04;;;;;;;10.25;6.80;;;;;;;26.58;59.95;65808.63;5033273;28;20245;-53
2023/07/26 01:38:30;;;;;;;16.58;6.35;;;;;;;26.67;59.91;65818.06;5033911;28;20197;-53
2023/07/26 01:40:57;;;;;;;17.92;6.68;;;;;;;26.81;58.94;65836.22;5033012;28;20233;-52
2023/07/26 01:43:23;;;;;;;12.05;6.30;;;;;;;26.94;59.23;65848.66;5033159;28;20321;-53
2023/07/26 01:45:48;;;;;;;12.40;7.07;;;;;;;26.77;58.50;65827.16;5033137;28;20285;-54
2023/07/26 01:48:14;;;;;;;12.88;6.15;;;;;;;26.71;58.71;65820.50;5033098;28;20206;-54
2023/07/26 01:50:39;;;;;;;14.15;6.60;;;;;;;26.87;58.93;65837.72;5032762;28;20697;-52
2023/07/26 01:53:04;;;;;;;14.02;6.75;;;;;;;26.92;57.48;65846.44;5032835;28;20198;-53
2023/07/26 01:55:30;;;;;;;13.88;7.18;;;;;;;27.12;55.10;65866.06;5032843;28;20194;-54
2023/07/26 01:57:56;;;;;;;13.23;6.50;;;;;;;27.04;53.44;65857.19;5033056;28;20584;-56
2023/07/26 02:00:21;;;;;;;19.40;7.15;;;;;;;27.10;53.14;65865.88;5032517;28;20684;-53
2023/07/26 02:02:47;;;;;;;11.23;6.30;;;;;;;27.20;53.19;65877.00;5032429;28;20217;-53
2023/07/26 02:05:12;;;;;;;11.68;6.55;;;;;;;27.26;53.52;65883.66;5032575;28;20248;-53
2023/07/26 02:07:38;;;;;;;14.50;6.57;;;;;;;27.04;54.71;65856.63;5032973;28;20676;-53
2023/07/26 02:10:04;;;;;;;14.55;5.95;;;;;;;27.01;55.94;65853.84;5030932;28;20709;-52
2023/07/26 02:12:30;;;;;;;12.07;6.72;;;;;;;27.00;54.73;65855.31;5032407;28;20245;-54
2023/07/26 02:14:55;;;;;;;14.98;6.43;;;;;;;26.90;56.04;65844.22;5032536;28;20198;-53
2023/07/26 02:17:21;;;;;;;12.32;6.78;;;;;;;26.95;54.90;65846.59;5032464;28;20233;-53
2023/07/26 02:19:46;;;;;;;11.10;6.47;;;;;;;27.08;54.17;65866.81;5032468;28;20202;-52
2023/07/26 02:22:12;;;;;;;18.77;7.22;;;;;;;27.12;54.18;65863.47;5032063;28;20561;-53
2023/07/26 02:24:37;;;;;;;17.15;6.72;;;;;;;27.03;54.42;65852.91;5032254;28;20186;-54
2023/07/26 02:27:03;;;;;;;14.65;7.20;;;;;;;27.22;53.04;65876.63;5032499;28;20562;-53
2023/07/26 02:29:28;;;;;;;14.05;6.43;;;;;;;27.19;54.09;65876.44;5030721;28;20705;-58
2023/07/26 02:31:54;;;;;;;13.65;7.15;;;;;;;27.16;54.11;65869.97;5031859;28;20283;-53
2023/07/26 02:34:19;;;;;;;13.68;6.30;;;;;;;27.07;54.97;65862.56;5031931;28;20233;-53
2023/07/26 02:36:45;;;;;;;14.23;6.30;;;;;;;27.10;55.53;65863.28;5032063;28;20684;-53
2023/07/26 02:39:10;;;;;;;11.18;6.20;;;;;;;27.17;54.84;65873.66;5030600;28;20202;-53
2023/07/26 02:41:36;;;;;;;19.40;7.25;;;;;;;26.97;55.77;65846.25;5031617;28;20206;-53
2023/07/26 02:44:01;;;;;;;17.52;7.60;;;;;;;26.86;56.07;65836.63;5031436;28;20309;-53
2023/07/26 02:46:27;;;;;;;14.35;6.68;;;;;;;26.84;55.78;65834.38;5032196;28;20301;-53
2023/07/26 02:48:52;;;;;;;15.13;6.50;;;;;;;26.79;56.79;65831.97;5031967;28;20206;-54
2023/07/26 02:51:18;;;;;;;16.90;6.60;;;;;;;26.78;56.37;65828.28;5031559;28;20352;-53
2023/07/26 02:53:43;;;;;;;13.60;7.03;;;;;;;26.74;56.18;65826.44;5031738;28;20236;-53
2023/07/26 02:56:09;;;;;;;13.52;6.57;;;;;;;26.76;56.43;65828.09;5031718;28;20225;-53
2023/07/26 02:58:34;;;;;;;17.55;6.65;;;;;;;26.72;56.08;65823.66;5047234;28;20684;-56
2023/07/26 03:01:00;;;;;;;16.67;7.10;;;;;;;26.79;56.14;65831.41;5031282;28;20217;-52
2023/07/26 03:03:25;;;;;;;14.20;6.80;;;;;;;26.74;56.25;65826.44;5031595;28;20201;-55
2023/07/26 03:05:51;;;;;;;14.48;7.10;;;;;;;26.72;57.47;65823.66;5031622;28;20202;-53
2023/07/26 03:08:16;;;;;;;20.05;7.45;;;;;;;26.64;57.16;65815.28;5031903;28;20202;-52
2023/07/26 03:10:42;;;;;;;12.32;6.90;;;;;;;26.58;58.27;65809.16;5031208;28;20237;-54
2023/07/26 03:13:07;;;;;;;14.45;6.68;;;;;;;26.72;57.44;65823.66;5031177;28;20233;-53
2023/07/26 03:15:33;;;;;;;21.55;7.70;;;;;;;26.49;58.61;65799.19;5031351;28;20206;-53
2023/07/26 03:17:58;;;;;;;15.25;6.93;;;;;;;26.38;56.62;65789.53;5031502;28;20586;-53
2023/07/26 03:20:24;;;;;;;14.68;7.05;;;;;;;26.50;57.29;65797.16;5031417;28;20325;-52
2023/07/26 03:22:49;;;;;;;12.50;6.47;;;;;;;26.61;56.73;65811.94;5030991;28;20708;-53
2023/07/26 03:25:14;;;;;;;12.88;7.30;;;;;;;26.75;57.43;65824.38;5031285;28;20261;-53
2023/07/26 03:27:40;;;;;;;17.80;7.32;;;;;;;26.41;58.48;65790.28;5031411;28;20202;-52
2023/07/26 03:30:06;;;;;;;18.27;7.82;;;;;;;26.08;60.49;65751.03;5046204;28;20253;-53
2023/07/26 03:32:31;;;;;;;18.90;8.10;;;;;;;26.02;62.29;65743.81;5031040;28;20291;-54
2023/07/26 03:34:57;;;;;;;17.92;7.10;;;;;;;26.23;61.59;65767.16;5030898;28;20643;-53
2023/07/26 03:37:22;;;;;;;12.95;6.43;;;;;;;26.02;62.79;65746.94;5031380;28;20253;-64
2023/07/26 03:39:48;;;;;;;14.25;6.63;;;;;;;25.78;64.11;65720.28;5030917;28;20202;-53
2023/07/26 03:42:13;;;;;;;15.65;7.18;;;;;;;25.75;64.55;65717.53;5031191;28;20218;-56
2023/07/26 03:44:39;;;;;;;15.82;7.78;;;;;;;25.82;65.17;65721.59;5029569;28;20277;-52
2023/07/26 03:47:06;;;;;;;17.17;8.20;;;;;;;26.01;64.57;65743.25;5046357;28;20308;-54
2023/07/26 03:49:31;;;;;;;21.33;7.78;;;;;;;25.66;67.44;65706.97;5031135;28;20194;-53
2023/07/26 03:51:57;;;;;;;21.60;8.00;;;;;;;25.58;67.77;65693.47;5031213;28;20218;-54
2023/07/26 03:54:22;;;;;;;16.55;7.75;;;;;;;25.55;68.93;65692.72;5030946;28;20572;-54
2023/07/26 03:56:48;;;;;;;14.02;7.20;;;;;;;25.81;68.36;65726.22;5030826;28;20210;-54
2023/07/26 03:59:13;;;;;;;11.15;7.63;;;;;;;25.63;68.95;65703.66;5030751;28;20583;-53
2023/07/26 04:01:39;;;;;;;16.83;8.13;;;;;;;25.96;68.34;65737.69;5030611;28;20226;-54
2023/07/26 04:04:05;;;;;;;15.45;7.80;;;;;;;25.71;69.71;65713.06;5031143;28;20286;-54
2023/07/26 04:06:30;;;;;;;16.10;7.30;;;;;;;25.63;70.15;65701.06;5029391;28;20214;-55
2023/07/26 04:08:56;;;;;;;15.15;7.43;;;;;;;25.89;69.92;65732.50;5030561;28;20205;-55
2023/07/26 04:11:21;;;;;;;11.98;7.60;;;;;;;25.76;70.23;65718.06;5030303;28;20261;-54
2023/07/26 04:13:47;;;;;;;16.30;7.53;;;;;;;25.58;71.93;65695.50;5031054;28;20204;-53
2023/07/26 04:16:17;;;;;;;16.70;7.80;;;;;;;25.18;73.53;65656.25;5030834;28;20252;-59
2023/07/26 04:18:43;;;;;;;12.73;7.45;;;;;;;25.35;74.30;65675.13;5030768;28;20202;-55
2023/07/26 04:21:16;;;;;;;15.48;8.07;;;;;;;25.50;67.52;65689.75;5030253;28;20218;-53
2023/07/26 04:23:43;;;;;;;15.05;8.00;;;;;;;25.43;73.72;65681.44;5030735;28;20198;-55
2023/07/26 04:26:09;;;;;;;17.05;7.90;;;;;;;25.52;74.55;65691.97;5030240;28;20214;-55
2023/07/26 04:28:34;;;;;;;16.90;7.85;;;;;;;25.61;73.93;65701.41;5030336;28;20263;-54
2023/07/26 04:31:00;;;;;;;16.50;7.93;;;;;;;25.48;74.22;65684.97;5030331;28;20221;-55
2023/07/26 04:33:25;;;;;;;13.32;7.40;;;;;;;25.56;75.07;65693.84;5030590;28;20259;-60
2023/07/26 04:35:51;;;;;;;18.63;8.50;;;;;;;25.77;73.03;65719.75;5030327;28;20206;-55
2023/07/26 04:38:19;;;;;;;15.10;8.57;;;;;;;25.85;72.07;65730.09;5028928;28;20221;-54
2023/07/26 04:40:48;;;;;;;12.27;7.43;;;;;;;25.91;73.15;65732.16;5030583;28;20217;-53
2023/07/26 04:43:16;;;;;;;18.15;8.27;;;;;;;25.62;75.59;65703.09;5030378;28;20182;-58
2023/07/26 04:45:42;;;;;;;17.52;8.55;;;;;;;25.53;75.06;65695.13;5030034;28;20706;-54
2023/07/26 04:48:07;;;;;;;15.95;8.23;;;;;;;25.90;75.43;65733.63;5030330;28;20206;-55
2023/07/26 04:50:33;;;;;;;15.38;8.98;;;;;;;25.99;75.00;65743.63;5029719;28;20222;-55
2023/07/26 04:52:58;;;;;;;13.90;7.93;;;;;;;25.68;76.33;65704.59;5029912;28;20206;-56
2023/07/26 04:55:24;;;;;;;16.00;7.85;;;;;;;25.60;75.34;65700.88;5030205;28;20271;-56
2023/07/26 04:57:49;;;;;;;12.93;7.82;;;;;;;25.87;76.61;65727.72;5030345;28;20636;-54
2023/07/26 05:00:14;;;;;;;16.52;8.07;;;;;;;25.90;76.29;65730.50;5030142;28;20198;-54
2023/07/26 05:02:40;;;;;;;16.63;9.48;;;;;;;26.19;75.80;65767.88;5029747;28;20214;-54
2023/07/26 05:05:06;;;;;;;17.83;9.05;;;;;;;26.28;75.72;65775.84;5029628;28;20357;-54
2023/07/26 05:07:31;;;;;;;17.48;8.88;;;;;;;26.20;75.58;65761.78;5033870;28;20297;-54
2023/07/26 05:09:57;;;;;;;21.05;9.20;;;;;;;26.07;76.98;65749.94;5033919;28;20295;-55
2023/07/26 05:12:23;;;;;;;19.63;9.20;;;;;;;26.17;75.66;65761.03;5033775;28;20218;-58
2023/07/26 05:14:48;;;;;;;17.92;9.30;;;;;;;26.19;76.99;65765.28;5033282;28;20241;-54
2023/07/26 05:17:14;;;;;;;16.92;9.60;;;;;;;26.42;76.88;65793.44;5033694;28;20556;-54
2023/07/26 05:19:40;;;;;;;16.80;8.88;;;;;;;26.72;74.62;65823.66;5033316;28;20680;-54
2023/07/26 05:22:06;;;;;;;15.50;9.20;;;;;;;26.42;73.98;65790.84;5033316;28;20206;-54
2023/07/26 05:24:31;;;;;;;14.90;7.18;;;;;;;26.40;68.86;65789.16;5032998;28;20594;-53
2023/07/26 05:26:58;;;;;;;21.42;9.45;;;;;;;26.74;71.35;65823.28;5032462;28;20318;-54
2023/07/26 05:29:23;;;;;;;19.27;7.65;;;;;;;26.82;68.04;65832.16;5031295;28;20763;-55
2023/07/26 05:31:49;;;;;;;13.55;8.60;;;;;;;26.72;70.64;65821.06;5032520;28;20311;-55
2023/07/26 05:34:15;;;;;;;15.20;8.38;;;;;;;26.99;72.88;65851.63;5032910;28;20596;-53
2023/07/26 05:36:41;;;;;;;16.85;7.43;;;;;;;26.87;69.43;65840.88;5031718;28;20210;-54
2023/07/26 05:39:07;;;;;;;13.23;7.72;;;;;;;26.71;71.10;65819.91;5033138;28;20202;-56
2023/07/26 05:41:32;;;;;;;16.00;7.93;;;;;;;26.85;71.03;65836.06;5031593;28;20222;-53
2023/07/26 05:44:01;;;;;;;13.10;8.65;;;;;;;26.65;70.60;65813.81;5032774;28;20671;-54
2023/07/26 05:46:26;;;;;;;15.48;9.13;;;;;;;26.77;70.75;65829.75;5048099;28;20214;-54
2023/07/26 05:48:52;;;;;;;15.60;8.18;;;;;;;26.85;70.35;65835.50;5032902;28;20198;-54
2023/07/26 05:51:17;;;;;;;17.98;9.27;;;;;;;27.05;68.40;65858.28;5032616;28;20218;-55
2023/07/26 05:53:42;;;;;;;16.88;9.13;;;;;;;27.18;68.84;65875.34;5032462;28;20661;-54
2023/07/26 05:56:08;;;;;;;22.73;10.00;;;;;;;27.21;69.69;65878.13;5032386;28;20375;-55
2023/07/26 05:58:34;;;;;;;19.30;7.95;;;;;;;27.03;68.28;65858.66;5047669;28;20652;-54
2023/07/26 06:00:59;;;;;;;19.17;8.27;;;;;;;26.91;69.43;65842.16;5032755;28;20217;-54
2023/07/26 06:03:25;;;;;;;17.15;7.72;;;;;;;26.97;69.14;65849.38;5032561;28;20735;-55
2023/07/26 06:05:50;;;;;;;17.52;7.80;;;;;;;26.91;68.56;65844.75;5032539;28;20217;-57
2023/07/26 06:08:17;;;;;;;15.38;8.32;;;;;;;27.07;68.07;65863.09;5032783;28;20735;-56
2023/07/26 06:10:44;;;;;;;17.88;10.48;;;;;;;27.41;67.36;65898.31;5031007;28;20222;-55
2023/07/26 06:13:12;;;;;;;21.27;9.32;;;;;;;27.19;69.08;65873.31;5032402;28;20213;-63
2023/07/26 06:15:41;;;;;;;15.70;8.63;;;;;;;26.88;68.28;65841.97;5032389;28;20194;-55
2023/07/26 06:18:07;;;;;;;18.90;8.60;;;;;;;26.90;69.02;65844.22;5032110;28;20668;-54
2023/07/26 06:20:33;;;;;;;21.00;11.10;;;;;;;27.16;68.61;65875.13;5032293;28;20209;-56
2023/07/26 06:23:00;;;;;;;19.88;10.45;;;;;;;27.24;68.76;65878.84;5032194;28;20217;-54
2023/07/26 06:25:25;;;;;;;21.42;9.93;;;;;;;27.31;68.50;65887.19;5032285;28;20194;-55
2023/07/26 06:27:51;;;;;;;72.97;20.58;;;;;;;27.24;66.67;65881.44;5031957;28;20651;-55
2023/07/26 06:30:16;;;;;;;23.80;11.43;;;;;;;27.38;65.34;65894.44;5032089;28;20217;-55
2023/07/26 06:32:42;;;;;;;34.63;10.05;;;;;;;27.48;65.16;65908.16;5031821;28;20225;-58
2023/07/26 06:35:11;;;;;;;28.98;11.32;;;;;;;27.64;65.29;65925.94;5031739;28;20657;-54
2023/07/26 06:37:36;;;;;;;45.42;14.63;;;;;;;28.04;64.84;65967.84;5031773;28;20210;-54
2023/07/26 06:40:03;;;;;;;74.43;19.80;;;;;;;28.18;64.07;65983.44;5031715;28;20643;-53
2023/07/26 06:42:29;;;;;;;44.65;11.80;;;;;;;28.26;63.43;65988.63;5030476;28;20715;-54
2023/07/26 06:44:54;;;;;;;28.67;9.13;;;;;;;28.33;60.76;65999.00;5031717;28;20289;-55
2023/07/26 06:47:20;;;;;;;21.35;9.77;;;;;;;28.33;61.54;65999.00;5031596;28;20304;-54
2023/07/26 06:49:45;;;;;;;23.38;10.23;;;;;;;28.40;59.84;66006.81;5031642;28;20205;-54
2023/07/26 06:52:11;;;;;;;22.95;8.63;;;;;;;28.56;58.98;66025.19;5031751;28;20214;-55
2023/07/26 06:54:37;;;;;;;20.83;8.50;;;;;;;28.71;55.88;66038.72;5046843;28;20205;-55
2023/07/26 06:57:03;;;;;;;17.52;8.38;;;;;;;28.88;54.26;66060.25;5031648;28;20210;-54
2023/07/26 06:59:29;;;;;;;17.60;8.45;;;;;;;29.16;53.32;66091.44;5031388;28;20206;-52
2023/07/26 07:01:54;;;;;;;18.17;8.85;;;;;;;29.35;53.54;66112.59;5031284;28;20214;-54
2023/07/26 07:04:20;;;;;;;24.02;7.80;;;;;;;29.65;50.34;66143.44;5031431;28;20199;-54
2023/07/26 07:06:45;;;;;;;20.27;7.93;;;;;;;29.83;48.64;66166.09;5031632;28;20221;-54
2023/07/26 07:09:12;;;;;;;24.25;7.40;;;;;;;29.94;47.75;66177.78;5046632;28;20642;-53
2023/07/26 07:11:38;;;;;;;17.60;7.28;;;;;;;29.96;47.55;66179.47;5031502;28;20739;-53
2023/07/26 07:14:04;;;;;;;17.98;7.68;;;;;;;30.02;46.57;66186.16;5046549;28;20197;-54
2023/07/26 07:16:36;;;;;;;21.17;8.10;;;;;;;30.15;46.28;66201.19;5030109;28;20218;-53
2023/07/26 07:19:01;;;;;;;23.20;8.70;;;;;;;30.39;45.97;66227.41;5031446;28;20210;-60
2023/07/26 07:21:26;;;;;;;22.95;7.25;;;;;;;30.54;42.86;66246.75;5031313;28;20810;-58
2023/07/26 07:23:52;;;;;;;20.50;7.75;;;;;;;30.77;43.96;66266.59;5031149;28;20665;-54
2023/07/26 07:26:18;;;;;;;19.77;8.65;;;;;;;30.92;41.75;66283.94;5031096;28;20214;-54
2023/07/26 07:28:43;;;;;;;16.92;6.95;;;;;;;31.08;34.13;66304.38;5030580;28;20198;-57
2023/07/26 07:31:09;;;;;;;21.88;7.50;;;;;;;31.23;32.90;66321.09;5031149;28;20249;-55
2023/07/26 07:33:34;;;;;;;22.10;7.47;;;;;;;31.44;33.70;66341.94;5031072;28;20190;-54
2023/07/26 07:36:00;;;;;;;12.68;6.20;;;;;;;31.56;33.27;66354.22;5031059;28;20217;-53
2023/07/26 07:38:26;;;;;;;22.65;7.03;;;;;;;31.51;32.27;66348.63;5031098;28;20684;-51
2023/07/26 07:40:51;;;;;;;24.77;7.85;;;;;;;31.69;32.98;66368.72;5030974;28;20679;-54
2023/07/26 07:43:17;;;;;;;24.50;7.90;;;;;;;31.81;33.86;66382.13;5031021;28;20182;-52
2023/07/26 07:45:43;;;;;;;15.63;7.35;;;;;;;31.98;33.43;66404.25;5030985;28;20212;-51
2023/07/26 07:48:09;;;;;;;24.13;6.90;;;;;;;32.06;31.94;66413.19;5030920;28;20198;-53
2023/07/26 07:50:35;;;;;;;18.17;6.30;;;;;;;32.21;32.20;66424.16;5030995;28;20226;-50
2023/07/26 07:53:01;;;;;;;22.67;6.82;;;;;;;32.41;31.94;66449.09;5030845;28;20213;-50
2023/07/26 07:55:31;;;;;;;19.20;7.05;;;;;;;32.39;30.27;66446.88;5030838;28;20313;-52
2023/07/26 07:57:58;;;;;;;24.30;7.40;;;;;;;32.59;31.33;66468.66;5030561;28;20309;-50
2023/07/26 08:00:23;;;;;;;15.55;6.30;;;;;;;32.80;30.45;66489.50;5030736;28;20193;-55
2023/07/26 08:02:49;;;;;;;18.95;7.03;;;;;;;32.90;31.05;66503.28;5030728;28;20726;-53
2023/07/26 08:05:14;;;;;;;15.63;6.40;;;;;;;32.95;30.22;66512.03;5030745;28;20201;-50
2023/07/26 08:07:40;;;;;;;14.30;5.78;;;;;;;32.93;29.26;66506.63;5030789;28;20778;-52
2023/07/26 08:10:06;;;;;;;13.65;4.75;;;;;;;32.67;28.98;66477.59;5030387;28;20214;-51
2023/07/26 08:12:35;;;;;;;25.10;7.18;;;;;;;32.90;29.09;66503.84;5030547;28;20758;-50
2023/07/26 08:15:01;;;;;;;23.90;6.65;;;;;;;32.69;29.66;66483.00;5029178;28;20293;-52
2023/07/26 08:17:26;;;;;;;17.40;6.65;;;;;;;32.74;29.80;66488.03;5030935;28;20241;-51
2023/07/26 08:19:52;;;;;;;17.83;6.57;;;;;;;32.99;29.88;66513.34;5029218;28;20214;-51
2023/07/26 08:22:17;;;;;;;18.55;6.55;;;;;;;33.05;30.15;66518.00;5030291;28;20244;-51
2023/07/26 08:24:43;;;;;;;16.75;5.95;;;;;;;32.94;30.23;66508.31;5030455;28;20194;-51
2023/07/26 08:27:08;;;;;;;18.67;6.40;;;;;;;32.90;29.87;66506.47;5030590;28;20680;-51
2023/07/26 08:29:33;;;;;;;22.67;6.38;;;;;;;32.81;29.63;66496.41;5030406;28;20255;-51
2023/07/26 08:31:59;;;;;;;18.52;6.07;;;;;;;32.94;29.54;66508.31;5045413;28;20228;-51
2023/07/26 08:34:25;;;;;;;17.65;6.32;;;;;;;33.08;28.15;66523.41;5030435;28;20206;-54
2023/07/26 08:36:50;;;;;;;14.70;4.97;;;;;;;33.29;28.12;66544.25;5030723;28;20292;-52
2023/07/26 08:39:16;;;;;;;20.05;6.57;;;;;;;33.30;28.70;66545.38;5030339;28;20198;-50
2023/07/26 08:41:42;;;;;;;16.55;5.75;;;;;;;33.27;29.30;66542.00;5032641;28;20671;-53
2023/07/26 08:44:09;;;;;;;17.15;6.18;;;;;;;33.19;28.94;66535.69;5034096;28;20181;-51
2023/07/26 08:46:39;;;;;;;17.65;6.57;;;;;;;33.41;28.86;66562.88;5034010;28;20288;-51
2023/07/26 08:49:06;;;;;;;24.83;6.68;;;;;;;33.30;27.78;66548.00;5033694;28;20680;-51
2023/07/26 08:51:31;;;;;;;16.55;5.47;;;;;;;33.44;28.09;66568.28;5033557;28;20222;-52
2023/07/26 08:53:58;;;;;;;22.70;6.07;;;;;;;33.41;28.65;66560.28;5033659;28;20229;-53
2023/07/26 08:56:26;;;;;;;18.75;5.78;;;;;;;33.44;28.35;66560.44;5033686;28;20224;-52
2023/07/26 08:58:52;;;;;;;20.02;6.57;;;;;;;33.38;28.18;66556.38;5033679;28;20198;-57
2023/07/26 09:01:18;;;;;;;19.55;6.53;;;;;;;33.50;28.64;66572.97;5033605;28;20646;-52
2023/07/26 09:03:50;;;;;;;20.92;6.00;;;;;;;33.91;29.68;66613.00;5032270;28;20295;-52
2023/07/26 09:06:15;;;;;;;18.88;5.90;;;;;;;34.02;28.45;66630.53;5033419;28;20253;-51
2023/07/26 09:08:43;;;;;;;23.13;6.07;;;;;;;33.99;28.45;66621.97;5033279;28;20680;-55
2023/07/26 09:11:27;;;;;;;20.30;6.35;;;;;;;34.14;27.37;66638.19;5033132;28;20316;-53
2023/07/26 09:13:58;;;;;;;14.70;5.72;;;;;;;33.90;26.85;66611.34;5033415;28;20202;-51
2023/07/26 09:16:29;;;;;;;21.20;6.03;;;;;;;33.95;27.08;66620.09;5033173;28;20220;-52
2023/07/26 09:19:02;;;;;;;13.57;5.32;;;;;;;34.00;26.74;66628.31;5033259;28;20284;-52
2023/07/26 09:21:32;;;;;;;21.05;6.53;;;;;;;34.34;26.49;66663.16;5048443;28;20252;-51
2023/07/26 09:23:59;;;;;;;26.33;6.03;;;;;;;34.23;25.78;66650.84;5033302;28;20205;-52
2023/07/26 09:26:41;;;;;;;16.67;4.82;;;;;;;33.99;26.21;66627.22;5031949;28;20217;-50
2023/07/26 09:29:12;;;;;;;17.23;5.75;;;;;;;34.09;26.27;66635.19;5032734;28;20174;-52
2023/07/26 09:31:41;;;;;;;20.52;5.50;;;;;;;34.16;26.19;66640.97;5032665;28;20229;-51
2023/07/26 09:34:08;;;;;;;20.70;5.38;;;;;;;34.20;26.45;66647.50;5033091;28;20237;-51
2023/07/26 09:37:00;;;;;;;13.48;5.68;;;;;;;34.15;26.66;66641.91;5032868;28;20716;-51
2023/07/26 09:39:28;;;;;;;26.10;6.10;;;;;;;34.07;25.97;66633.53;5029248;28;20668;-53
2023/07/26 09:42:03;;;;;;;15.45;5.57;;;;;;;34.19;26.23;66646.38;5033009;28;20230;-52
2023/07/26 09:44:29;;;;;;;21.27;5.65;;;;;;;33.98;26.79;66620.81;5032604;28;20202;-52
2023/07/26 09:46:57;;;;;;;18.30;5.57;;;;;;;34.14;27.47;66641.34;5032991;28;20213;-51
2023/07/26 09:49:27;;;;;;;14.45;5.82;;;;;;;34.33;26.77;66659.41;5032819;28;20205;-51
2023/07/26 09:51:58;;;;;;;19.75;5.60;;;;;;;34.55;27.24;66684.03;5032547;28;20221;-51
2023/07/26 09:54:34;;;;;;;17.38;6.32;;;;;;;34.64;26.73;66697.28;5032717;28;20680;-52
2023/07/26 09:57:00;;;;;;;20.40;5.88;;;;;;;34.51;27.72;66682.19;5032503;28;20214;-52
2023/07/26 09:59:28;;;;;;;16.00;5.35;;;;;;;34.98;27.42;66731.59;5048240;28;20230;-52
2023/07/26 10:01:55;;;;;;;16.83;5.20;;;;;;;34.61;26.29;66693.94;5032405;28;20696;-52
2023/07/26 10:04:46;;;;;;;15.90;5.35;;;;;;;34.81;26.95;66715.19;5032444;28;20280;-56
2023/07/26 10:07:13;;;;;;;24.75;6.22;;;;;;;34.84;26.74;66715.91;5030422;28;20252;-52
2023/07/26 10:09:44;;;;;;;19.23;6.05;;;;;;;34.64;27.19;66694.66;5032716;28;20244;-53
2023/07/26 10:12:10;;;;;;;18.73;5.55;;;;;;;34.76;27.55;66710.16;5032564;28;20210;-51
2023/07/26 10:14:36;;;;;;;21.73;6.22;;;;;;;34.57;28.34;66692.06;5032437;28;20224;-52
2023/07/26 10:17:04;;;;;;;20.42;5.68;;;;;;;34.27;27.94;66655.31;5031966;28;20210;-52
2023/07/26 10:19:31;;;;;;;19.30;6.05;;;;;;;34.66;27.57;66696.34;5032281;28;20198;-52
2023/07/26 10:21:58;;;;;;;19.20;6.30;;;;;;;34.72;27.04;66705.69;5032169;28;20596;-51
2023/07/26 10:24:25;;;;;;;17.33;5.70;;;;;;;34.63;27.32;66696.16;5032119;28;20198;-51
2023/07/26 10:26:52;;;;;;;17.85;5.65;;;;;;;34.09;28.04;66632.59;5047322;28;20271;-52
2023/07/26 10:29:18;;;;;;;19.27;6.47;;;;;;;34.16;27.97;66643.59;5032071;28;20206;-51
2023/07/26 10:31:44;;;;;;;17.23;5.60;;;;;;;34.52;27.76;66683.84;5031041;28;20221;-51
2023/07/26 10:34:19;;;;;;;19.77;6.00;;;;;;;34.95;27.03;66731.41;5031426;28;20620;-51
2023/07/26 10:36:44;;;;;;;21.17;5.85;;;;;;;34.98;26.94;66734.78;5031722;28;20216;-51
2023/07/26 10:39:12;;;;;;;21.70;6.18;;;;;;;34.59;27.18;66691.13;5032046;28;20198;-52
2023/07/26 10:41:46;;;;;;;19.58;6.20;;;;;;;34.54;27.52;66688.72;5032023;28;20210;-52
2023/07/26 10:44:12;;;;;;;14.30;6.32;;;;;;;34.90;27.17;66725.25;5031977;28;20216;-51
2023/07/26 10:46:55;;;;;;;17.48;6.40;;;;;;;35.14;27.74;66752.69;5031843;28;20707;-51
2023/07/26 10:49:26;;;;;;;14.77;6.32;;;;;;;34.84;26.47;66718.53;5047164;28;20209;-50
2023/07/26 10:52:11;;;;;;;22.33;6.45;;;;;;;35.05;26.09;66742.06;5032064;28;20241;-52
2023/07/26 10:54:44;;;;;;;14.43;5.57;;;;;;;34.92;26.12;66728.06;5031034;28;20205;-50
2023/07/26 10:57:20;;;;;;;18.38;5.85;;;;;;;34.58;26.55;66687.94;5032073;28;20202;-51
2023/07/26 10:59:50;;;;;;;17.73;5.97;;;;;;;35.10;26.33;66748.22;5031617;28;20263;-56
2023/07/26 11:02:15;;;;;;;18.17;6.70;;;;;;;35.41;26.53;66782.88;5031739;28;20228;-52
2023/07/26 11:04:44;;;;;;;14.35;6.50;;;;;;;35.62;26.29;66802.66;5030619;28;20606;-52
2023/07/26 11:07:11;;;;;;;13.48;5.40;;;;;;;35.22;26.14;66758.44;5031466;28;20222;-52
2023/07/26 11:09:37;;;;;;;15.88;6.20;;;;;;;34.88;27.11;66723.00;5031568;28;20252;-56
2023/07/26 11:12:12;;;;;;;23.52;5.38;;;;;;;35.17;26.55;66752.88;5031398;28;20230;-52
2023/07/26 11:14:38;;;;;;;18.23;5.55;;;;;;;35.36;26.55;66774.69;5031366;28;20193;-51
2023/07/26 11:17:14;;;;;;;15.15;5.25;;;;;;;35.52;26.31;66792.03;5046500;28;20210;-50
2023/07/26 11:19:50;;;;;;;14.75;5.68;;;;;;;34.61;26.54;66693.94;5031554;28;20225;-52
2023/07/26 11:22:18;;;;;;;13.80;5.40;;;;;;;34.58;27.06;66693.19;5031554;28;20221;-52